createdAt,value
2018-02-21T00:00:49.249Z,19.30
2018-02-21T00:03:16.553Z,20.50
2018-02-21T00:05:44.713Z,20.67
2018-02-21T00:08:12.071Z,20.47
2018-02-21T00:10:39.428Z,21.23
2018-02-21T00:13:06.826Z,19.63
2018-02-21T00:15:34.792Z,19.53
2018-02-21T00:18:02.167Z,21.27
2018-02-21T00:20:29.558Z,19.30
2018-02-21T00:22:56.909Z,19.77
2018-02-21T00:25:24.298Z,21.43
2018-02-21T00:27:51.656Z,19.87
2018-02-21T00:30:19.050Z,21.17
2018-02-21T00:32:46.458Z,19.40
2018-02-21T00:35:13.816Z,21.53
2018-02-21T00:37:41.168Z,19.87
2018-02-21T00:40:09.554Z,20.63
2018-02-21T00:42:36.909Z,20.50
2018-02-21T00:45:04.360Z,20.33
2018-02-21T00:47:31.718Z,20.43
2018-02-21T00:49:59.073Z,19.10
2018-02-21T00:52:26.452Z,20.90
2018-02-21T00:54:53.820Z,19.63
2018-02-21T00:57:21.219Z,20.93
2018-02-21T00:59:48.579Z,20.47
2018-02-21T01:02:15.979Z,18.53
2018-02-21T01:04:43.337Z,21.20
2018-02-21T01:07:10.748Z,19.73
2018-02-21T01:09:38.112Z,19.73
2018-02-21T01:12:05.486Z,20.10
2018-02-21T01:14:32.897Z,19.33
2018-02-21T01:17:00.293Z,19.60
2018-02-21T01:19:27.646Z,20.17
2018-02-21T01:21:55.013Z,19.03
2018-02-21T01:24:22.397Z,19.70
2018-02-21T01:26:49.782Z,20.10
2018-02-21T01:29:17.181Z,19.70
2018-02-21T01:31:44.538Z,20.67
2018-02-21T01:34:11.902Z,19.13
2018-02-21T01:36:39.296Z,19.00
2018-02-21T01:39:06.658Z,20.10
2018-02-21T01:41:34.056Z,20.43
2018-02-21T01:44:01.442Z,20.00
2018-02-21T01:46:28.850Z,19.50
2018-02-21T01:48:56.237Z,18.47
2018-02-21T01:51:23.597Z,20.10
2018-02-21T01:53:51.000Z,19.63
2018-02-21T01:56:18.357Z,19.80
2018-02-21T01:58:45.741Z,20.80
2018-02-21T02:01:13.112Z,19.00
2018-02-21T02:03:40.530Z,19.63
2018-02-21T02:06:07.882Z,18.97
2018-02-21T02:08:35.241Z,20.47
2018-02-21T02:11:02.649Z,19.87
2018-02-21T02:13:30.007Z,20.20
2018-02-21T02:15:57.365Z,20.17
2018-02-21T02:18:24.757Z,18.03
2018-02-21T02:20:52.121Z,19.83
2018-02-21T02:23:19.517Z,20.50
2018-02-21T02:25:46.896Z,18.63
2018-02-21T02:28:14.248Z,19.33
2018-02-21T02:30:41.661Z,21.23
2018-02-21T02:33:09.066Z,21.37
2018-02-21T02:35:36.422Z,19.93
2018-02-21T02:38:03.782Z,20.90
2018-02-21T02:40:31.193Z,19.40
2018-02-21T02:42:58.548Z,21.60
2018-02-21T02:45:25.912Z,20.00
2018-02-21T02:47:53.318Z,21.17
2018-02-21T02:50:20.706Z,21.63
2018-02-21T02:52:48.084Z,21.47
2018-02-21T02:55:15.486Z,19.50
2018-02-21T02:57:42.850Z,21.17
2018-02-21T03:00:10.207Z,20.63
2018-02-21T03:02:37.614Z,21.67
2018-02-21T03:05:04.974Z,22.00
2018-02-21T03:07:32.364Z,21.03
2018-02-21T03:09:59.735Z,20.57
2018-02-21T03:12:27.124Z,22.75
2018-02-21T03:14:54.547Z,20.97
2018-02-21T03:17:21.901Z,21.60
2018-02-21T03:19:49.285Z,21.13
2018-02-21T03:22:16.674Z,21.87
2018-02-21T03:24:44.073Z,22.40
2018-02-21T03:27:11.440Z,20.80
2018-02-21T03:29:38.801Z,21.40
2018-02-21T03:32:06.184Z,21.00
2018-02-21T03:34:33.538Z,23.10
2018-02-21T03:37:00.929Z,20.60
2018-02-21T03:39:28.321Z,21.57
2018-02-21T03:41:55.720Z,22.87
2018-02-21T03:44:23.077Z,22.87
2018-02-21T03:46:50.432Z,20.60
2018-02-21T03:49:17.829Z,20.97
2018-02-21T03:51:45.191Z,23.53
2018-02-21T03:54:12.579Z,21.23
2018-02-21T03:56:39.978Z,21.60
2018-02-21T03:59:07.342Z,21.77
2018-02-21T04:01:34.777Z,22.27
2018-02-21T04:04:02.178Z,21.87
2018-02-21T04:06:29.562Z,22.27
2018-02-21T04:08:56.956Z,22.47
2018-02-21T04:11:24.313Z,21.33
2018-02-21T04:13:51.681Z,20.67
2018-02-21T04:16:19.082Z,21.63
2018-02-21T04:18:46.433Z,21.37
2018-02-21T04:21:14.042Z,22.07
2018-02-21T04:23:41.439Z,23.40
2018-02-21T04:26:08.837Z,22.20
2018-02-21T04:28:36.193Z,21.83
2018-02-21T04:31:03.553Z,20.37
2018-02-21T04:33:30.942Z,23.13
2018-02-21T04:35:58.297Z,21.77
2018-02-21T04:38:25.709Z,23.00
2018-02-21T04:40:53.066Z,21.63
2018-02-21T04:43:20.449Z,21.93
2018-02-21T04:45:47.856Z,21.33
2018-02-21T04:48:15.245Z,22.70
2018-02-21T04:50:42.605Z,19.93
2018-02-21T04:53:09.993Z,20.67
2018-02-21T04:55:52.045Z,23.53
2018-02-21T04:58:39.150Z,20.20
2018-02-21T05:01:06.566Z,22.60
2018-02-21T05:03:33.989Z,20.70
2018-02-21T05:06:01.381Z,20.37
2018-02-21T05:08:28.745Z,23.10
2018-02-21T05:10:56.150Z,22.53
2018-02-21T05:13:23.529Z,21.93
2018-02-21T05:15:50.881Z,22.17
2018-02-21T05:18:18.270Z,21.60
2018-02-21T05:20:45.676Z,20.30
2018-02-21T05:23:13.030Z,21.20
2018-02-21T05:25:40.430Z,20.70
2018-02-21T05:28:07.821Z,22.47
2018-02-21T05:30:35.180Z,20.17
2018-02-21T05:33:02.576Z,20.73
2018-02-21T05:35:29.945Z,20.60
2018-02-21T05:37:57.352Z,20.50
2018-02-21T05:40:24.717Z,21.93
2018-02-21T05:42:52.092Z,20.93
2018-02-21T05:45:19.486Z,21.30
2018-02-21T05:47:46.857Z,21.30
2018-02-21T05:50:14.250Z,20.80
2018-02-21T05:52:41.605Z,19.43
2018-02-21T05:55:08.967Z,21.57
2018-02-21T05:57:36.357Z,20.33
2018-02-21T06:00:03.760Z,19.17
2018-02-21T06:02:31.126Z,20.40
2018-02-21T06:04:58.485Z,20.30
2018-02-21T06:07:25.877Z,20.87
2018-02-21T06:09:53.229Z,21.53
2018-02-21T06:12:20.586Z,20.10
2018-02-21T06:14:47.993Z,20.47
2018-02-21T06:17:15.362Z,21.43
2018-02-21T06:19:42.721Z,20.60
2018-02-21T06:22:10.115Z,21.77
2018-02-21T06:24:37.478Z,20.90
2018-02-21T06:27:04.834Z,21.20
2018-02-21T06:29:32.225Z,20.40
2018-02-21T06:31:59.581Z,20.00
2018-02-21T06:34:26.971Z,20.60
2018-02-21T06:36:54.333Z,21.73
2018-02-21T06:39:21.709Z,20.10
2018-02-21T06:41:49.127Z,21.60
2018-02-21T06:44:16.497Z,21.47
2018-02-21T06:46:43.853Z,20.43
2018-02-21T06:49:11.257Z,22.00
2018-02-21T06:51:38.612Z,21.13
2018-02-21T06:54:05.973Z,22.73
2018-02-21T06:56:33.373Z,21.60
2018-02-21T06:59:00.737Z,20.70
2018-02-21T07:01:28.102Z,21.73
2018-02-21T07:03:55.527Z,22.00
2018-02-21T07:06:22.898Z,20.77
2018-02-21T07:08:50.253Z,21.47
2018-02-21T07:11:17.662Z,25.80
2018-02-21T07:13:45.022Z,22.80
2018-02-21T07:16:12.387Z,22.37
2018-02-21T07:18:39.799Z,22.30
2018-02-21T07:21:07.156Z,20.67
2018-02-21T07:23:34.518Z,20.80
2018-02-21T07:26:01.894Z,22.97
2018-02-21T07:28:29.309Z,20.20
2018-02-21T07:30:56.720Z,21.27
2018-02-21T07:33:24.084Z,22.57
2018-02-21T07:35:51.468Z,22.77
2018-02-21T07:38:18.825Z,21.47
2018-02-21T07:40:46.185Z,21.57
2018-02-21T07:43:13.566Z,21.80
2018-02-21T07:45:40.975Z,21.10
2018-02-21T07:48:08.370Z,22.27
2018-02-21T07:50:35.738Z,21.97
2018-02-21T07:53:03.088Z,22.33
2018-02-21T07:55:30.478Z,20.40
2018-02-21T07:57:57.837Z,21.20
2018-02-21T08:00:25.222Z,22.30
2018-02-21T08:02:52.618Z,22.13
2018-02-21T08:05:19.982Z,22.40
2018-02-21T08:07:47.337Z,21.63
2018-02-21T08:10:14.729Z,19.83
2018-02-21T08:12:42.085Z,22.47
2018-02-21T08:15:09.437Z,22.00
2018-02-21T08:17:36.820Z,20.97
2018-02-21T08:20:04.181Z,21.70
2018-02-21T08:22:31.554Z,21.17
2018-02-21T08:24:58.949Z,21.37
2018-02-21T08:27:26.305Z,20.80
2018-02-21T08:29:53.661Z,21.53
2018-02-21T08:32:21.054Z,21.40
2018-02-21T08:34:48.416Z,21.57
2018-02-21T08:37:15.787Z,21.43
2018-02-21T08:39:43.169Z,21.00
2018-02-21T08:42:10.528Z,19.90
2018-02-21T08:44:37.914Z,20.50
2018-02-21T08:47:05.964Z,22.10
2018-02-21T08:49:33.324Z,19.90
2018-02-21T08:52:00.738Z,19.57
2018-02-21T08:54:28.112Z,21.20
2018-02-21T08:56:55.465Z,19.53
2018-02-21T08:59:22.866Z,20.37
2018-02-21T09:01:50.226Z,19.17
2018-02-21T09:04:17.606Z,19.90
2018-02-21T09:06:44.989Z,19.93
2018-02-21T09:09:12.349Z,20.10
2018-02-21T09:11:39.706Z,18.43
2018-02-21T09:14:07.125Z,19.60
2018-02-21T09:16:34.617Z,19.57
2018-02-21T09:19:01.965Z,20.10
2018-02-21T09:21:29.357Z,20.60
2018-02-21T09:23:56.718Z,21.00
2018-02-21T09:26:24.086Z,19.40
2018-02-21T09:28:51.481Z,20.43
2018-02-21T09:31:18.865Z,19.70
2018-02-21T09:33:46.382Z,19.00
2018-02-21T09:36:13.775Z,21.47
2018-02-21T09:38:41.150Z,18.70
2018-02-21T09:41:08.508Z,20.67
2018-02-21T09:43:35.925Z,20.10
2018-02-21T09:46:03.314Z,20.60
2018-02-21T09:48:30.682Z,20.20
2018-02-21T09:50:58.050Z,19.07
2018-02-21T09:53:25.453Z,18.73
2018-02-21T09:55:52.817Z,19.20
2018-02-21T09:58:20.181Z,19.23
2018-02-21T10:00:47.590Z,18.67
2018-02-21T10:03:14.943Z,18.50
2018-02-21T10:05:42.334Z,16.70
2018-02-21T10:08:09.684Z,17.03
2018-02-21T10:10:37.096Z,16.73
2018-02-21T10:13:04.480Z,16.03
2018-02-21T10:15:31.871Z,16.47
2018-02-21T10:17:59.231Z,16.13
2018-02-21T10:20:26.591Z,17.30
2018-02-21T10:22:53.979Z,16.87
2018-02-21T10:25:21.361Z,16.53
2018-02-21T10:27:48.750Z,17.10
2018-02-21T10:30:16.129Z,16.70
2018-02-21T10:32:43.486Z,16.60
2018-02-21T10:35:10.877Z,16.37
2018-02-21T10:37:38.285Z,15.15
2018-02-21T10:40:05.646Z,16.50
2018-02-21T10:42:33.006Z,16.13
2018-02-21T10:45:00.500Z,18.10
2018-02-21T10:47:27.869Z,16.43
2018-02-21T10:49:55.229Z,15.83
2018-02-21T10:52:22.642Z,16.20
2018-02-21T10:54:50.027Z,15.97
2018-02-21T10:57:17.391Z,16.50
2018-02-21T10:59:44.784Z,15.23
2018-02-21T11:02:12.150Z,13.55
2018-02-21T11:04:39.548Z,14.30
2018-02-21T11:07:06.906Z,13.30
2018-02-21T11:09:34.270Z,13.50
2018-02-21T11:12:01.683Z,13.13
2018-02-21T11:14:29.049Z,12.43
2018-02-21T11:16:56.528Z,11.70
2018-02-21T11:19:23.934Z,12.07
2018-02-21T11:21:51.289Z,10.90
2018-02-21T11:24:18.786Z,11.40
2018-02-21T11:26:46.156Z,10.30
2018-02-21T11:29:13.562Z,10.40
2018-02-21T11:31:40.958Z,10.80
2018-02-21T11:34:08.317Z,11.33
2018-02-21T11:36:35.697Z,11.20
2018-02-21T11:39:03.097Z,9.73
2018-02-21T11:43:57.233Z,9.90
2018-02-21T11:46:24.619Z,9.13
2018-02-21T11:48:51.966Z,9.40
2018-02-21T11:51:19.317Z,8.43
2018-02-21T11:53:46.701Z,9.10
2018-02-21T11:56:14.097Z,9.23
2018-02-21T12:01:08.250Z,9.30
2018-02-21T12:03:35.608Z,8.87
2018-02-21T12:06:03.013Z,10.30
2018-02-21T12:08:30.366Z,8.87
2018-02-21T12:10:57.724Z,8.53
2018-02-21T12:13:25.106Z,8.70
2018-02-21T12:15:52.458Z,9.13
2018-02-21T12:18:19.813Z,8.63
2018-02-21T12:20:47.215Z,8.10
2018-02-21T12:23:14.598Z,7.67
2018-02-21T12:25:41.980Z,6.60
2018-02-21T12:28:09.339Z,7.57
2018-02-21T12:30:36.690Z,7.67
2018-02-21T12:33:04.093Z,7.13
2018-02-21T12:35:31.445Z,7.53
2018-02-21T12:37:58.801Z,7.77
2018-02-21T12:40:31.955Z,7.20
2018-02-21T12:42:59.317Z,8.43
2018-02-21T12:45:26.669Z,7.87
2018-02-21T12:47:54.068Z,7.90
2018-02-21T12:50:21.430Z,8.27
2018-02-21T12:52:48.779Z,8.37
2018-02-21T12:55:16.175Z,7.80
2018-02-21T12:57:43.526Z,7.63
2018-02-21T13:00:10.920Z,7.40
2018-02-21T13:02:38.301Z,7.67
2018-02-21T13:05:05.650Z,7.57
2018-02-21T13:07:33.032Z,7.93
2018-02-21T13:10:00.391Z,6.93
2018-02-21T13:12:27.750Z,6.77
2018-02-21T13:14:55.161Z,7.73
2018-02-21T13:17:22.541Z,7.90
2018-02-21T13:19:49.884Z,7.80
2018-02-21T13:22:17.281Z,7.83
2018-02-21T13:24:44.629Z,8.40
2018-02-21T13:27:11.978Z,7.90
2018-02-21T13:29:39.379Z,9.90
2018-02-21T13:32:06.789Z,10.23
2018-02-21T13:34:34.141Z,10.37
2018-02-21T13:37:01.527Z,11.30
2018-02-21T13:39:28.926Z,10.83
2018-02-21T13:41:56.293Z,10.57
2018-02-21T13:44:23.657Z,9.70
2018-02-21T13:46:51.037Z,9.97
2018-02-21T13:49:18.386Z,9.73
2018-02-21T13:51:45.774Z,9.67
2018-02-21T13:54:13.133Z,10.35
2018-02-21T13:56:40.489Z,10.87
2018-02-21T13:59:07.890Z,9.97
2018-02-21T14:01:35.242Z,9.75
2018-02-21T14:04:02.601Z,10.35
2018-02-21T14:06:30.001Z,11.07
2018-02-21T14:08:57.357Z,10.10
2018-02-21T14:11:24.726Z,9.70
2018-02-21T14:13:52.119Z,10.60
2018-02-21T14:16:19.478Z,10.35
2018-02-21T14:18:46.855Z,10.70
2018-02-21T14:21:14.249Z,10.57
2018-02-21T14:23:41.633Z,10.50
2018-02-21T14:26:09.046Z,11.50
2018-02-21T14:28:36.402Z,11.27
2018-02-21T14:31:03.766Z,11.47
2018-02-21T14:33:31.161Z,11.53
2018-02-21T14:35:58.533Z,11.10
2018-02-21T14:38:25.922Z,10.90
2018-02-21T14:40:53.370Z,11.00
2018-02-21T14:43:20.737Z,11.00
2018-02-21T14:45:48.112Z,11.10
2018-02-21T14:48:15.497Z,11.33
2018-02-21T14:50:42.911Z,11.60
2018-02-21T14:53:10.298Z,11.23
2018-02-21T14:55:37.653Z,11.53
2018-02-21T14:58:05.056Z,12.13
2018-02-21T15:00:32.413Z,12.77
2018-02-21T15:02:59.786Z,11.60
2018-02-21T15:05:27.176Z,12.43
2018-02-21T15:07:54.594Z,12.37
2018-02-21T15:10:21.985Z,12.30
2018-02-21T15:12:49.344Z,12.37
2018-02-21T15:15:16.738Z,12.50
2018-02-21T15:17:44.124Z,12.70
2018-02-21T15:20:11.533Z,12.60
2018-02-21T15:22:38.889Z,12.50
2018-02-21T15:25:06.261Z,13.07
2018-02-21T15:27:33.661Z,14.50
2018-02-21T15:30:01.026Z,15.17
2018-02-21T15:32:28.390Z,15.17
2018-02-21T15:34:55.790Z,14.15
2018-02-21T15:37:23.150Z,14.60
2018-02-21T15:39:50.505Z,14.50
2018-02-21T15:42:17.890Z,13.47
2018-02-21T15:44:45.246Z,14.23
2018-02-21T15:47:12.630Z,14.37
2018-02-21T15:49:40.049Z,14.10
2018-02-21T15:52:07.406Z,13.70
2018-02-21T15:54:34.818Z,13.50
2018-02-21T15:57:02.221Z,13.77
2018-02-21T15:59:29.577Z,13.53
2018-02-21T16:01:56.929Z,13.47
2018-02-21T16:04:24.445Z,13.40
2018-02-21T16:06:51.816Z,13.10
2018-02-21T16:09:19.177Z,13.37
2018-02-21T16:11:46.578Z,14.50
2018-02-21T16:14:13.957Z,15.17
2018-02-21T16:16:41.308Z,13.00
2018-02-21T16:19:08.779Z,13.23
2018-02-21T16:21:36.138Z,12.53
2018-02-21T16:24:03.577Z,13.60
2018-02-21T16:26:31.037Z,13.30
2018-02-21T16:28:58.403Z,13.07
2018-02-21T16:31:25.821Z,13.80
2018-02-21T16:33:53.176Z,13.40
2018-02-21T16:36:20.541Z,13.47
2018-02-21T16:38:47.949Z,12.67
2018-02-21T16:41:15.304Z,13.10
2018-02-21T16:43:42.669Z,12.30
2018-02-21T16:46:10.067Z,12.70
2018-02-21T16:48:37.427Z,13.17
2018-02-21T16:51:04.785Z,12.87
2018-02-21T16:53:32.178Z,12.03
2018-02-21T16:55:59.534Z,12.33
2018-02-21T16:58:26.909Z,11.93
2018-02-21T17:00:54.317Z,13.17
2018-02-21T17:03:21.695Z,12.00
2018-02-21T17:05:49.053Z,12.90
2018-02-21T17:08:16.433Z,12.00
2018-02-21T17:10:43.789Z,11.70
2018-02-21T17:13:11.190Z,12.40
2018-02-21T17:15:38.579Z,12.57
2018-02-21T17:18:05.945Z,12.80
2018-02-21T17:20:33.885Z,11.80
2018-02-21T17:23:01.241Z,12.80
2018-02-21T17:25:28.598Z,13.53
2018-02-21T17:27:56.010Z,12.67
2018-02-21T17:30:23.406Z,12.23
2018-02-21T17:32:50.762Z,12.23
2018-02-21T17:35:18.162Z,13.20
2018-02-21T17:37:45.553Z,13.80
2018-02-21T17:40:12.949Z,14.37
2018-02-21T17:42:40.317Z,12.67
2018-02-21T17:45:07.753Z,13.40
2018-02-21T17:47:35.180Z,13.40
2018-02-21T17:50:02.546Z,12.90
2018-02-21T17:52:29.896Z,13.50
2018-02-21T17:54:57.325Z,12.80
2018-02-21T17:57:24.728Z,13.80
2018-02-21T17:59:52.066Z,13.67
2018-02-21T18:02:19.458Z,14.73
2018-02-21T18:04:46.829Z,15.30
2018-02-21T18:07:14.188Z,16.47
2018-02-21T18:09:41.592Z,15.07
2018-02-21T18:12:08.949Z,14.53
2018-02-21T18:14:36.320Z,14.83
2018-02-21T18:17:03.741Z,14.87
2018-02-21T18:19:31.101Z,15.03
2018-02-21T18:21:58.541Z,15.27
2018-02-21T18:24:25.937Z,14.60
2018-02-21T18:26:53.292Z,16.50
2018-02-21T18:29:20.653Z,15.33
2018-02-21T18:31:48.059Z,15.20
2018-02-21T18:34:15.417Z,15.07
2018-02-21T18:36:42.796Z,15.50
2018-02-21T18:39:10.185Z,14.97
2018-02-21T18:41:37.546Z,14.93
2018-02-21T18:44:04.954Z,15.07
2018-02-21T18:46:32.349Z,15.50
2018-02-21T18:48:59.700Z,15.20
2018-02-21T18:51:27.062Z,15.00
2018-02-21T18:53:54.437Z,15.73
2018-02-21T18:56:21.885Z,14.30
2018-02-21T18:58:49.289Z,15.55
2018-02-21T19:01:16.657Z,15.13
2018-02-21T19:03:44.037Z,15.45
2018-02-21T19:06:11.437Z,14.00
2018-02-21T19:08:38.829Z,16.10
2018-02-21T19:11:06.193Z,15.85
2018-02-21T19:13:33.602Z,14.80
2018-02-21T19:16:00.956Z,15.77
2018-02-21T19:18:28.315Z,14.60
2018-02-21T19:20:55.739Z,16.67
2018-02-21T19:23:23.167Z,15.00
2018-02-21T19:25:50.557Z,16.40
2018-02-21T19:28:17.915Z,16.90
2018-02-21T19:30:45.294Z,15.50
2018-02-21T19:33:12.725Z,16.90
2018-02-21T19:35:40.109Z,15.67
2018-02-21T19:38:07.527Z,17.83
2018-02-21T19:40:34.905Z,17.27
2018-02-21T19:43:02.459Z,16.70
2018-02-21T19:45:29.867Z,17.60
2018-02-21T19:47:57.236Z,18.40
2018-02-21T19:50:24.885Z,18.17
2018-02-21T19:52:52.373Z,18.10
2018-02-21T19:55:19.741Z,18.43
2018-02-21T19:57:47.156Z,18.50
2018-02-21T20:00:14.766Z,17.47
2018-02-21T20:02:42.129Z,19.13
2018-02-21T20:05:09.481Z,20.07
2018-02-21T20:07:37.033Z,22.27
2018-02-21T20:10:04.453Z,23.23
2018-02-21T20:12:31.899Z,24.10
2018-02-21T20:14:59.371Z,20.63
2018-02-21T20:17:27.016Z,21.53
2018-02-21T20:19:54.475Z,20.87
2018-02-21T20:22:21.930Z,23.23
2018-02-21T20:24:49.411Z,20.43
2018-02-21T20:27:16.795Z,21.47
2018-02-21T20:29:44.194Z,18.10
2018-02-21T20:32:11.681Z,19.63
2018-02-21T20:34:39.156Z,19.17
2018-02-21T20:37:07.548Z,17.90
2018-02-21T20:39:34.967Z,18.03
2018-02-21T20:42:02.508Z,17.97
2018-02-21T20:44:30.069Z,17.80
2018-02-21T20:46:57.650Z,17.13
2018-02-21T20:49:25.211Z,17.90
2018-02-21T20:51:52.745Z,18.47
2018-02-21T20:54:20.613Z,16.10
2018-02-21T20:56:48.062Z,16.00
2018-02-21T20:59:15.721Z,16.17
2018-02-21T21:01:42.996Z,15.47
2018-02-21T21:04:10.358Z,15.60
2018-02-21T21:06:37.713Z,15.40
2018-02-21T21:09:05.122Z,15.73
2018-02-21T21:11:32.490Z,14.23
2018-02-21T21:13:59.850Z,14.47
2018-02-21T21:16:27.255Z,14.00
2018-02-21T21:18:54.610Z,13.00
2018-02-21T21:21:21.984Z,13.70
2018-02-21T21:23:49.377Z,12.00
2018-02-21T21:26:16.741Z,12.93
2018-02-21T21:28:44.131Z,13.77
2018-02-21T21:31:11.592Z,12.97
2018-02-21T21:33:38.919Z,13.70
2018-02-21T21:36:06.281Z,12.10
2018-02-21T21:38:33.698Z,12.70
2018-02-21T21:41:01.057Z,11.90
2018-02-21T21:43:28.417Z,12.00
2018-02-21T21:45:55.798Z,11.40
2018-02-21T21:48:23.162Z,11.60
2018-02-21T21:50:50.574Z,11.13
2018-02-21T21:53:17.948Z,10.77
2018-02-21T21:55:45.320Z,11.20
2018-02-21T21:58:12.730Z,10.23
2018-02-21T22:00:40.097Z,11.00
2018-02-21T22:03:07.453Z,11.23
2018-02-21T22:05:35.663Z,11.70
2018-02-21T22:08:03.021Z,11.53
2018-02-21T22:10:30.372Z,11.10
2018-02-21T22:12:57.758Z,10.77
2018-02-21T22:15:25.106Z,12.33
2018-02-21T22:17:52.505Z,10.20
2018-02-21T22:20:19.906Z,10.33
2018-02-21T22:22:47.260Z,10.03
2018-02-21T22:25:14.662Z,10.47
2018-02-21T22:27:42.017Z,10.30
2018-02-21T22:30:09.405Z,10.50
2018-02-21T22:32:36.822Z,11.20
2018-02-21T22:35:04.181Z,9.93
2018-02-21T22:37:31.570Z,9.90
2018-02-21T22:39:58.969Z,11.63
2018-02-21T22:42:26.365Z,10.70
2018-02-21T22:44:53.731Z,11.43
2018-02-21T22:47:21.216Z,11.43
2018-02-21T22:49:48.589Z,10.70
2018-02-21T22:52:15.985Z,10.33
2018-02-21T22:54:43.351Z,10.37
2018-02-21T22:57:10.705Z,10.60
2018-02-21T22:59:38.157Z,11.23
2018-02-21T23:02:05.548Z,10.77
2018-02-21T23:04:32.901Z,10.50
2018-02-21T23:07:00.308Z,10.80
2018-02-21T23:09:27.675Z,9.57
2018-02-21T23:11:55.030Z,11.33
2018-02-21T23:14:22.441Z,10.60
2018-02-21T23:16:49.805Z,10.80
2018-02-21T23:19:17.197Z,11.10
2018-02-21T23:21:44.569Z,11.50
2018-02-21T23:24:11.961Z,12.00
2018-02-21T23:26:39.379Z,11.07
2018-02-21T23:29:06.741Z,10.43
2018-02-21T23:31:34.105Z,11.83
2018-02-21T23:34:01.510Z,11.17
2018-02-21T23:36:28.873Z,11.40
2018-02-21T23:38:56.320Z,11.77
2018-02-21T23:41:23.722Z,11.53
2018-02-21T23:43:51.085Z,12.90
2018-02-21T23:46:18.465Z,12.83
2018-02-21T23:48:45.853Z,12.97
2018-02-21T23:51:13.243Z,13.10
2018-02-21T23:53:40.597Z,12.20
2018-02-21T23:56:07.954Z,12.30
2018-02-21T23:58:35.340Z,12.30
